createdAt,value
2018-05-26T01:30:22.053Z,14.86
2018-05-26T01:30:22.621Z,14.83
2018-05-26T01:30:23.223Z,14.87
2018-05-26T01:30:23.821Z,14.86
2018-05-26T01:30:24.421Z,14.86
2018-05-26T01:30:25.026Z,14.78
2018-05-26T01:30:25.620Z,14.84
2018-05-26T01:30:26.220Z,14.87
2018-05-26T01:31:19.703Z,14.94
2018-05-26T01:31:20.279Z,14.83
2018-05-26T01:31:20.872Z,14.84
2018-05-26T01:31:21.473Z,14.87
2018-05-26T01:31:22.072Z,14.87
2018-05-26T01:31:22.672Z,14.84
2018-05-26T01:31:23.273Z,14.75
2018-05-26T01:31:23.871Z,14.87
2018-05-26T01:32:17.356Z,14.78
2018-05-26T01:32:17.925Z,14.86
2018-05-26T01:32:18.526Z,14.83
2018-05-26T01:32:19.125Z,14.86
2018-05-26T01:32:19.725Z,14.86
2018-05-26T01:32:20.325Z,14.87
2018-05-26T01:32:20.927Z,14.78
2018-05-26T01:32:21.524Z,14.87
2018-05-26T01:33:16.034Z,14.90
2018-05-26T01:33:16.601Z,14.81
2018-05-26T01:33:17.201Z,14.87
2018-05-26T01:33:17.801Z,14.86
2018-05-26T01:33:18.401Z,14.86
2018-05-26T01:33:19.000Z,14.83
2018-05-26T01:33:19.604Z,14.86
2018-05-26T01:33:20.204Z,14.84
2018-05-26T01:34:14.707Z,14.80
2018-05-26T01:34:15.280Z,14.81
2018-05-26T01:34:15.877Z,14.84
2018-05-26T01:34:16.477Z,14.84
2018-05-26T01:34:17.076Z,14.78
2018-05-26T01:34:17.677Z,14.83
2018-05-26T01:34:18.284Z,14.83
2018-05-26T01:34:18.875Z,14.86
2018-05-26T01:35:12.360Z,14.84
2018-05-26T01:35:12.931Z,14.83
2018-05-26T01:35:13.529Z,14.93
2018-05-26T01:35:14.129Z,14.88
2018-05-26T01:35:14.735Z,14.93
2018-05-26T01:35:15.331Z,14.95
2018-05-26T01:35:15.930Z,14.83
2018-05-26T01:35:16.530Z,14.88
2018-05-26T01:36:11.035Z,14.83
2018-05-26T01:36:11.609Z,14.91
2018-05-26T01:36:12.205Z,14.88
2018-05-26T01:36:12.809Z,14.95
2018-05-26T01:36:13.405Z,14.90
2018-05-26T01:36:14.005Z,14.90
2018-05-26T01:36:14.608Z,14.93
2018-05-26T01:36:15.205Z,14.93
2018-05-26T01:37:09.712Z,14.90
2018-05-26T01:37:10.282Z,14.84
2018-05-26T01:37:10.881Z,14.87
2018-05-26T01:37:11.481Z,14.78
2018-05-26T01:37:12.081Z,14.95
2018-05-26T01:37:12.680Z,14.91
2018-05-26T01:37:13.283Z,14.91
2018-05-26T01:37:13.881Z,14.87
2018-05-26T01:38:07.364Z,14.87
2018-05-26T01:38:07.935Z,14.90
2018-05-26T01:38:08.534Z,14.90
2018-05-26T01:38:09.135Z,14.86
2018-05-26T01:38:09.734Z,14.91
2018-05-26T01:38:10.334Z,14.86
2018-05-26T01:38:10.935Z,14.84
2018-05-26T01:38:11.534Z,14.84
2018-05-26T01:39:06.042Z,14.90
2018-05-26T01:39:06.610Z,14.99
2018-05-26T01:39:07.209Z,14.91
2018-05-26T01:39:07.809Z,14.93
2018-05-26T01:39:08.409Z,14.91
2018-05-26T01:39:09.009Z,14.84
2018-05-26T01:39:09.609Z,14.93
2018-05-26T01:39:10.209Z,14.90
2018-05-26T01:40:04.716Z,14.93
2018-05-26T01:40:05.286Z,15.01
2018-05-26T01:40:05.885Z,14.86
2018-05-26T01:40:06.485Z,14.94
2018-05-26T01:40:07.089Z,14.95
2018-05-26T01:40:07.685Z,15.01
2018-05-26T01:40:08.285Z,14.86
2018-05-26T01:40:08.885Z,14.91
2018-05-26T01:41:03.391Z,14.93
2018-05-26T01:41:03.960Z,14.95
2018-05-26T01:41:04.561Z,14.98
2018-05-26T01:41:05.163Z,14.87
2018-05-26T01:41:05.765Z,14.94
2018-05-26T01:41:06.362Z,14.90
2018-05-26T01:41:06.961Z,14.88
2018-05-26T01:41:07.563Z,14.93
2018-05-26T01:42:01.044Z,14.94
2018-05-26T01:42:01.617Z,14.91
2018-05-26T01:42:02.219Z,14.91
2018-05-26T01:42:02.813Z,14.95
2018-05-26T01:42:03.415Z,14.95
2018-05-26T01:42:04.013Z,14.93
2018-05-26T01:42:04.616Z,14.90
2018-05-26T01:42:05.213Z,14.98
2018-05-26T01:43:02.687Z,14.93
2018-05-26T01:43:03.262Z,14.99
2018-05-26T01:43:03.858Z,14.99
2018-05-26T01:43:57.370Z,14.99
2018-05-26T01:43:57.942Z,14.93
2018-05-26T01:43:58.542Z,14.99
2018-05-26T01:43:59.142Z,14.95
2018-05-26T01:43:59.745Z,14.99
2018-05-26T01:44:00.340Z,15.05
2018-05-26T01:44:00.939Z,14.99
2018-05-26T01:44:01.553Z,14.99
2018-05-26T01:44:55.024Z,15.02
2018-05-26T01:44:55.594Z,14.95
2018-05-26T01:44:56.194Z,14.98
2018-05-26T01:44:56.792Z,14.99
2018-05-26T01:44:57.393Z,14.99
2018-05-26T01:44:57.993Z,15.01
2018-05-26T01:44:58.592Z,14.99
2018-05-26T01:44:59.193Z,15.02
2018-05-26T01:45:53.764Z,14.99
2018-05-26T01:45:54.274Z,14.98
2018-05-26T01:45:54.873Z,14.95
2018-05-26T01:45:55.469Z,15.09
2018-05-26T01:45:56.071Z,14.99
2018-05-26T01:45:56.672Z,14.94
2018-05-26T01:45:57.269Z,14.99
2018-05-26T01:45:57.869Z,14.95
2018-05-26T01:46:51.350Z,14.98
2018-05-26T01:46:51.921Z,15.09
2018-05-26T01:46:52.521Z,15.03
2018-05-26T01:46:53.125Z,15.03
2018-05-26T01:46:53.721Z,15.09
2018-05-26T01:46:54.320Z,15.12
2018-05-26T01:46:54.920Z,15.11
2018-05-26T01:46:55.520Z,15.05
2018-05-26T01:47:49.002Z,15.06
2018-05-26T01:47:49.573Z,15.11
2018-05-26T01:47:50.172Z,15.08
2018-05-26T01:47:50.821Z,15.09
2018-05-26T01:47:51.373Z,15.06
2018-05-26T01:47:51.971Z,15.13
2018-05-26T01:47:52.572Z,15.12
2018-05-26T01:47:53.171Z,15.08
2018-05-26T01:48:46.654Z,15.06
2018-05-26T01:48:47.225Z,15.09
2018-05-26T01:48:47.824Z,15.08
2018-05-26T01:48:48.426Z,15.11
2018-05-26T01:48:49.023Z,15.05
2018-05-26T01:48:49.625Z,15.11
2018-05-26T01:48:50.224Z,15.03
2018-05-26T01:48:50.824Z,15.09
2018-05-26T01:49:44.305Z,15.11
2018-05-26T01:49:44.875Z,15.11
2018-05-26T01:49:45.476Z,15.08
2018-05-26T01:49:46.075Z,15.13
2018-05-26T01:49:46.677Z,15.01
2018-05-26T01:49:47.274Z,15.06
2018-05-26T01:49:47.875Z,15.12
2018-05-26T01:49:48.473Z,15.11
2018-05-26T01:50:41.956Z,15.09
2018-05-26T01:50:42.530Z,15.05
2018-05-26T01:50:43.128Z,15.11
2018-05-26T01:50:43.728Z,15.13
2018-05-26T01:50:44.329Z,15.09
2018-05-26T01:50:44.927Z,15.21
2018-05-26T01:50:45.526Z,15.09
2018-05-26T01:50:46.126Z,15.19
2018-05-26T01:51:40.633Z,15.11
2018-05-26T01:51:41.202Z,15.12
2018-05-26T01:51:41.803Z,15.08
2018-05-26T01:51:42.403Z,15.08
2018-05-26T01:51:43.006Z,15.13
2018-05-26T01:51:43.601Z,15.13
2018-05-26T01:51:44.200Z,15.08
2018-05-26T01:51:44.801Z,15.08
2018-05-26T01:52:39.307Z,15.08
2018-05-26T01:52:39.881Z,15.11
2018-05-26T01:52:40.483Z,15.09
2018-05-26T01:52:41.078Z,15.09
2018-05-26T01:52:41.681Z,15.15
2018-05-26T01:52:42.279Z,15.12
2018-05-26T01:52:42.878Z,15.12
2018-05-26T01:52:43.478Z,15.19
2018-05-26T01:53:36.959Z,15.12
2018-05-26T01:53:37.531Z,15.15
2018-05-26T01:53:38.130Z,15.12
2018-05-26T01:53:38.733Z,15.09
2018-05-26T01:53:39.332Z,15.13
2018-05-26T01:53:39.931Z,15.09
2018-05-26T01:53:40.533Z,15.13
2018-05-26T01:53:41.134Z,15.15
2018-05-26T01:54:35.636Z,15.15
2018-05-26T01:54:36.204Z,15.19
2018-05-26T01:54:36.809Z,15.23
2018-05-26T01:54:37.407Z,15.20
2018-05-26T01:54:38.006Z,15.20
2018-05-26T01:54:38.610Z,15.13
2018-05-26T01:54:39.206Z,15.24
2018-05-26T01:54:39.807Z,15.24
2018-05-26T01:55:33.289Z,15.15
2018-05-26T01:55:33.859Z,15.20
2018-05-26T01:55:34.459Z,15.23
2018-05-26T01:55:35.059Z,15.12
2018-05-26T01:55:35.662Z,15.20
2018-05-26T01:55:36.258Z,15.15
2018-05-26T01:55:36.858Z,15.23
2018-05-26T01:55:37.458Z,15.23
2018-05-26T01:56:31.963Z,15.21
2018-05-26T01:56:32.533Z,15.26
2018-05-26T01:56:33.133Z,15.24
2018-05-26T01:56:33.736Z,15.19
2018-05-26T01:56:34.334Z,15.23
2018-05-26T01:56:34.933Z,15.20
2018-05-26T01:56:35.534Z,15.30
2018-05-26T01:56:36.136Z,15.20
2018-05-26T01:57:30.639Z,15.24
2018-05-26T01:57:31.208Z,15.19
2018-05-26T01:57:31.809Z,15.26
2018-05-26T01:57:32.409Z,15.24
2018-05-26T01:57:33.010Z,15.26
2018-05-26T01:57:33.609Z,15.23
2018-05-26T01:57:34.211Z,15.28
2018-05-26T01:57:34.808Z,15.31
2018-05-26T01:58:28.291Z,15.23
2018-05-26T01:58:28.863Z,15.30
2018-05-26T01:58:29.462Z,15.27
2018-05-26T01:58:30.063Z,15.33
2018-05-26T01:58:30.662Z,15.24
2018-05-26T01:58:31.263Z,15.27
2018-05-26T01:58:31.864Z,15.33
2018-05-26T01:58:32.462Z,15.30
2018-05-26T01:59:25.943Z,15.24
2018-05-26T01:59:26.514Z,15.27
2018-05-26T01:59:27.112Z,15.26
2018-05-26T01:59:27.714Z,15.26
2018-05-26T01:59:28.313Z,15.27
2018-05-26T01:59:28.912Z,15.30
2018-05-26T01:59:29.515Z,15.24
2018-05-26T01:59:30.111Z,15.26
2018-05-26T02:00:23.598Z,15.30
2018-05-26T02:00:24.165Z,15.26
2018-05-26T02:00:24.767Z,15.26
2018-05-26T02:00:25.365Z,15.21
2018-05-26T02:00:25.964Z,15.23
2018-05-26T02:00:26.567Z,15.23
2018-05-26T02:00:27.165Z,15.24
2018-05-26T02:00:27.765Z,15.27
2018-05-26T02:01:22.272Z,15.35
2018-05-26T02:01:22.841Z,15.24
2018-05-26T02:01:23.440Z,15.30
2018-05-26T02:01:24.041Z,15.27
2018-05-26T02:01:24.641Z,15.28
2018-05-26T02:01:25.240Z,15.24
2018-05-26T02:01:25.840Z,15.26
2018-05-26T02:01:26.441Z,15.27
2018-05-26T02:02:19.922Z,15.33
2018-05-26T02:02:20.493Z,15.24
2018-05-26T02:02:21.092Z,15.31
2018-05-26T02:02:21.693Z,15.26
2018-05-26T02:02:22.295Z,15.27
2018-05-26T02:02:22.892Z,15.30
2018-05-26T02:02:23.493Z,15.27
2018-05-26T02:02:24.096Z,15.23
2018-05-26T02:03:17.578Z,15.28
2018-05-26T02:03:18.144Z,15.31
2018-05-26T02:03:18.745Z,15.35
2018-05-26T02:03:19.345Z,15.30
2018-05-26T02:03:19.945Z,15.28
2018-05-26T02:03:20.546Z,15.31
2018-05-26T02:03:21.145Z,15.33
2018-05-26T02:03:21.744Z,15.35
2018-05-26T02:04:16.252Z,15.33
2018-05-26T02:04:16.819Z,15.26
2018-05-26T02:04:17.417Z,15.30
2018-05-26T02:04:18.020Z,15.28
2018-05-26T02:04:18.620Z,15.28
2018-05-26T02:04:19.219Z,15.31
2018-05-26T02:04:19.818Z,15.33
2018-05-26T02:04:20.419Z,15.36
2018-05-26T02:05:14.941Z,15.33
2018-05-26T02:05:15.494Z,15.30
2018-05-26T02:05:16.095Z,15.21
2018-05-26T02:05:16.695Z,15.33
2018-05-26T02:05:17.296Z,15.33
2018-05-26T02:05:17.894Z,15.31
2018-05-26T02:05:18.496Z,15.33
2018-05-26T02:05:19.095Z,15.28
2018-05-26T02:06:13.601Z,15.27
2018-05-26T02:06:14.170Z,15.30
2018-05-26T02:06:14.769Z,15.30
2018-05-26T02:06:15.370Z,15.36
2018-05-26T02:06:15.973Z,15.36
2018-05-26T02:06:16.570Z,15.35
2018-05-26T02:06:17.169Z,15.35
2018-05-26T02:06:17.769Z,15.24
2018-05-26T02:07:12.275Z,15.24
2018-05-26T02:07:12.846Z,15.27
2018-05-26T02:07:13.446Z,15.30
2018-05-26T02:07:14.046Z,15.21
2018-05-26T02:07:14.646Z,15.28
2018-05-26T02:07:15.245Z,15.28
2018-05-26T02:07:15.846Z,15.26
2018-05-26T02:07:16.445Z,15.27
2018-05-26T02:08:09.930Z,15.30
2018-05-26T02:08:10.499Z,15.30
2018-05-26T02:08:11.098Z,15.28
2018-05-26T02:08:11.699Z,15.24
2018-05-26T02:08:12.298Z,15.28
2018-05-26T02:08:12.899Z,15.35
2018-05-26T02:08:13.498Z,15.24
2018-05-26T02:08:14.098Z,15.28
2018-05-26T02:09:07.579Z,15.28
2018-05-26T02:09:08.151Z,15.38
2018-05-26T02:09:08.750Z,15.38
2018-05-26T02:09:09.353Z,15.41
2018-05-26T02:09:09.998Z,15.31
2018-05-26T02:09:10.551Z,15.42
2018-05-26T02:09:11.151Z,15.33
2018-05-26T02:09:11.750Z,15.35
2018-05-26T02:10:06.264Z,15.33
2018-05-26T02:10:06.825Z,15.39
2018-05-26T02:10:07.426Z,15.38
2018-05-26T02:10:08.028Z,15.38
2018-05-26T02:10:08.630Z,15.38
2018-05-26T02:10:09.225Z,15.36
2018-05-26T02:10:09.825Z,15.36
2018-05-26T02:10:10.427Z,15.41
2018-05-26T02:11:03.907Z,15.30
2018-05-26T02:11:04.480Z,15.38
2018-05-26T02:11:05.085Z,15.30
2018-05-26T02:11:05.678Z,15.38
2018-05-26T02:11:06.278Z,15.38
2018-05-26T02:11:06.878Z,15.38
2018-05-26T02:11:07.480Z,15.36
2018-05-26T02:11:08.077Z,15.39
2018-05-26T02:12:01.559Z,15.24
2018-05-26T02:12:02.130Z,15.35
2018-05-26T02:12:02.739Z,15.41
2018-05-26T02:12:03.329Z,15.36
2018-05-26T02:12:03.933Z,15.36
2018-05-26T02:12:04.533Z,15.35
2018-05-26T02:12:05.133Z,15.31
2018-05-26T02:12:05.735Z,15.39
2018-05-26T02:13:00.235Z,15.35
2018-05-26T02:13:00.804Z,15.39
2018-05-26T02:13:01.405Z,15.39
2018-05-26T02:13:02.007Z,15.41
2018-05-26T02:13:02.605Z,15.38
2018-05-26T02:13:03.206Z,15.39
2018-05-26T02:13:03.805Z,15.36
2018-05-26T02:13:04.403Z,15.35
2018-05-26T02:13:57.887Z,15.35
2018-05-26T02:13:58.462Z,15.41
2018-05-26T02:13:59.057Z,15.35
2018-05-26T02:13:59.657Z,15.31
2018-05-26T02:14:00.257Z,15.39
2018-05-26T02:14:00.857Z,15.38
2018-05-26T02:14:01.459Z,15.35
2018-05-26T02:14:02.059Z,15.39
2018-05-26T02:14:55.539Z,15.41
2018-05-26T02:14:56.112Z,15.36
2018-05-26T02:14:56.707Z,15.38
2018-05-26T02:14:57.307Z,15.35
2018-05-26T02:14:57.907Z,15.33
2018-05-26T02:14:58.506Z,15.38
2018-05-26T02:14:59.106Z,15.41
2018-05-26T02:14:59.707Z,15.38
2018-05-26T02:15:53.191Z,15.39
2018-05-26T02:15:53.761Z,15.33
2018-05-26T02:15:54.362Z,15.36
2018-05-26T02:15:54.964Z,15.38
2018-05-26T02:15:55.560Z,15.36
2018-05-26T02:15:56.160Z,15.39
2018-05-26T02:15:56.761Z,15.38
2018-05-26T02:15:57.360Z,15.36
2018-05-26T02:16:51.865Z,15.31
2018-05-26T02:16:52.437Z,15.36
2018-05-26T02:16:53.036Z,15.41
2018-05-26T02:16:53.637Z,15.30
2018-05-26T02:16:54.235Z,15.35
2018-05-26T02:16:54.835Z,15.39
2018-05-26T02:16:55.435Z,15.39
2018-05-26T02:16:56.035Z,15.38
2018-05-26T02:17:51.058Z,15.26
2018-05-26T02:17:51.627Z,15.33
2018-05-26T02:17:52.223Z,15.31
2018-05-26T02:17:52.825Z,15.35
2018-05-26T02:17:53.423Z,15.38
2018-05-26T02:17:54.022Z,15.38
2018-05-26T02:17:54.623Z,15.38
2018-05-26T02:18:48.193Z,15.23
2018-05-26T02:18:48.764Z,15.30
2018-05-26T02:18:49.366Z,15.39
2018-05-26T02:18:49.965Z,15.31
2018-05-26T02:18:50.563Z,15.33
2018-05-26T02:18:51.164Z,15.24
2018-05-26T02:18:51.763Z,15.35
2018-05-26T02:18:52.362Z,15.36
2018-05-26T02:19:45.844Z,15.27
2018-05-26T02:19:46.415Z,15.33
2018-05-26T02:19:47.015Z,15.24
2018-05-26T02:19:47.619Z,15.36
2018-05-26T02:19:48.214Z,15.33
2018-05-26T02:19:48.815Z,15.38
2018-05-26T02:19:49.419Z,15.35
2018-05-26T02:19:50.014Z,15.38
2018-05-26T02:20:44.588Z,15.24
2018-05-26T02:20:45.093Z,15.28
2018-05-26T02:20:45.701Z,15.41
2018-05-26T02:20:46.293Z,15.35
2018-05-26T02:20:46.892Z,15.24
2018-05-26T02:20:47.492Z,15.31
2018-05-26T02:20:48.092Z,15.24
2018-05-26T02:20:48.693Z,15.36
2018-05-26T02:21:43.195Z,15.26
2018-05-26T02:21:43.765Z,15.33
2018-05-26T02:21:44.366Z,15.27
2018-05-26T02:21:44.966Z,15.31
2018-05-26T02:21:45.565Z,15.28
2018-05-26T02:21:46.165Z,15.31
2018-05-26T02:21:46.766Z,15.35
2018-05-26T02:21:47.364Z,15.24
2018-05-26T02:22:40.952Z,15.24
2018-05-26T02:22:41.520Z,15.30
2018-05-26T02:22:42.120Z,15.26
2018-05-26T02:22:42.721Z,15.35
2018-05-26T02:22:43.320Z,15.38
2018-05-26T02:22:43.924Z,15.26
2018-05-26T02:22:44.522Z,15.26
2018-05-26T02:22:45.120Z,15.30
2018-05-26T02:23:39.626Z,15.36
2018-05-26T02:23:40.195Z,15.31
2018-05-26T02:23:40.800Z,15.27
2018-05-26T02:23:41.396Z,15.27
2018-05-26T02:23:41.995Z,15.28
2018-05-26T02:23:42.595Z,15.20
2018-05-26T02:23:43.198Z,15.31
2018-05-26T02:23:43.795Z,15.39
2018-05-26T02:24:37.278Z,15.27
2018-05-26T02:24:37.848Z,15.27
2018-05-26T02:24:38.448Z,15.30
2018-05-26T02:24:39.049Z,15.27
2018-05-26T02:24:39.648Z,15.24
2018-05-26T02:24:40.248Z,15.27
2018-05-26T02:24:40.848Z,15.33
2018-05-26T02:24:41.447Z,15.24
2018-05-26T02:25:35.952Z,15.30
2018-05-26T02:25:36.523Z,15.28
2018-05-26T02:25:37.123Z,15.24
2018-05-26T02:25:37.724Z,15.24
2018-05-26T02:25:38.326Z,15.27
2018-05-26T02:25:38.922Z,15.31
2018-05-26T02:25:39.523Z,15.23
2018-05-26T02:25:40.123Z,15.30
2018-05-26T02:26:33.610Z,15.33
2018-05-26T02:26:34.176Z,15.24
2018-05-26T02:26:34.775Z,15.24
2018-05-26T02:26:35.376Z,15.33
2018-05-26T02:26:35.975Z,15.33
2018-05-26T02:26:36.575Z,15.30
2018-05-26T02:26:37.176Z,15.24
2018-05-26T02:26:37.774Z,15.26
2018-05-26T02:27:32.281Z,15.33
2018-05-26T02:27:32.851Z,15.27
2018-05-26T02:27:33.449Z,15.28
2018-05-26T02:27:34.050Z,15.30
2018-05-26T02:27:34.650Z,15.28
2018-05-26T02:27:35.250Z,15.35
2018-05-26T02:27:35.849Z,15.33
2018-05-26T02:27:36.450Z,15.27
2018-05-26T02:28:29.934Z,15.23
2018-05-26T02:28:30.503Z,15.30
2018-05-26T02:28:31.102Z,15.27
2018-05-26T02:28:31.704Z,15.30
2018-05-26T02:28:32.303Z,15.23
2018-05-26T02:28:32.906Z,15.30
2018-05-26T02:28:33.506Z,15.24
2018-05-26T02:28:34.103Z,15.28
2018-05-26T02:29:27.585Z,15.23
2018-05-26T02:29:28.161Z,15.27
2018-05-26T02:29:28.759Z,15.23
2018-05-26T02:29:29.355Z,15.21
2018-05-26T02:29:29.955Z,15.27
2018-05-26T02:29:30.555Z,15.20
2018-05-26T02:29:31.156Z,15.26
2018-05-26T02:29:31.754Z,15.27
2018-05-26T02:30:25.236Z,15.21
2018-05-26T02:30:25.809Z,15.24
2018-05-26T02:30:26.406Z,15.20
2018-05-26T02:30:27.007Z,15.27
2018-05-26T02:30:27.605Z,15.20
2018-05-26T02:30:28.207Z,15.20
2018-05-26T02:30:28.808Z,15.27
2018-05-26T02:30:29.404Z,15.23
2018-05-26T02:31:22.890Z,15.23
2018-05-26T02:31:23.458Z,15.20
2018-05-26T02:31:24.059Z,15.17
2018-05-26T02:31:24.659Z,15.23
2018-05-26T02:31:25.264Z,15.21
2018-05-26T02:31:25.859Z,15.30
2018-05-26T02:31:26.457Z,15.24
2018-05-26T02:31:27.069Z,15.20
2018-05-26T02:32:20.639Z,15.23
2018-05-26T02:32:21.140Z,15.21
2018-05-26T02:32:21.740Z,15.20
2018-05-26T02:32:22.338Z,15.20
2018-05-26T02:32:22.943Z,15.11
2018-05-26T02:32:23.537Z,15.24
2018-05-26T02:32:24.138Z,15.20
2018-05-26T02:32:24.736Z,15.11
2018-05-26T02:33:19.213Z,15.11
2018-05-26T02:33:19.786Z,15.20
2018-05-26T02:33:20.386Z,15.20
2018-05-26T02:33:20.985Z,15.15
2018-05-26T02:33:21.585Z,15.24
2018-05-26T02:33:22.187Z,15.23
2018-05-26T02:33:22.784Z,15.20
2018-05-26T02:33:23.383Z,15.17
2018-05-26T02:34:17.888Z,15.15
2018-05-26T02:34:18.461Z,15.13
2018-05-26T02:34:19.061Z,15.19
2018-05-26T02:34:19.662Z,15.23
2018-05-26T02:34:20.260Z,15.19
2018-05-26T02:34:20.862Z,15.11
2018-05-26T02:34:21.461Z,15.24
2018-05-26T02:34:22.064Z,15.17
2018-05-26T02:35:15.544Z,15.15
2018-05-26T02:35:16.113Z,15.15
2018-05-26T02:35:16.714Z,15.20
2018-05-26T02:35:17.313Z,15.15
2018-05-26T02:35:17.913Z,15.24
2018-05-26T02:35:18.512Z,15.12
2018-05-26T02:35:19.112Z,15.12
2018-05-26T02:35:19.713Z,15.13
2018-05-26T02:36:14.219Z,15.13
2018-05-26T02:36:14.791Z,15.15
2018-05-26T02:36:15.394Z,15.12
2018-05-26T02:36:15.988Z,15.17
2018-05-26T02:36:16.591Z,15.17
2018-05-26T02:36:17.188Z,15.13
2018-05-26T02:36:17.793Z,15.12
2018-05-26T02:36:18.386Z,15.12
2018-05-26T02:37:12.896Z,15.15
2018-05-26T02:37:13.464Z,15.13
2018-05-26T02:37:14.070Z,15.12
2018-05-26T02:37:14.665Z,15.19
2018-05-26T02:37:15.267Z,15.09
2018-05-26T02:37:15.863Z,15.11
2018-05-26T02:37:16.465Z,15.13
2018-05-26T02:37:17.064Z,15.11
2018-05-26T02:38:10.546Z,15.13
2018-05-26T02:38:11.116Z,15.12
2018-05-26T02:38:11.716Z,15.09
2018-05-26T02:38:12.319Z,15.15
2018-05-26T02:38:12.915Z,15.08
2018-05-26T02:38:13.517Z,15.13
2018-05-26T02:38:14.118Z,15.13
2018-05-26T02:38:14.715Z,15.06
2018-05-26T02:39:08.201Z,15.12
2018-05-26T02:39:08.772Z,15.12
2018-05-26T02:39:09.371Z,15.13
2018-05-26T02:39:09.969Z,15.09
2018-05-26T02:39:10.568Z,15.15
2018-05-26T02:39:11.168Z,15.09
2018-05-26T02:39:11.767Z,15.12
2018-05-26T02:39:12.369Z,15.12
2018-05-26T02:40:05.849Z,15.12
2018-05-26T02:40:06.421Z,15.12
2018-05-26T02:40:07.024Z,15.13
2018-05-26T02:40:07.621Z,15.13
2018-05-26T02:40:08.221Z,15.17
2018-05-26T02:40:08.819Z,15.12
2018-05-26T02:40:09.419Z,15.12
2018-05-26T02:40:10.020Z,15.11
2018-05-26T02:41:03.593Z,15.09
2018-05-26T02:41:04.100Z,15.17
2018-05-26T02:41:04.697Z,15.15
2018-05-26T02:41:05.298Z,15.08
2018-05-26T02:41:05.898Z,15.12
2018-05-26T02:41:06.497Z,15.11
2018-05-26T02:41:07.100Z,15.09
2018-05-26T02:41:07.699Z,15.17
2018-05-26T02:42:01.256Z,15.12
2018-05-26T02:42:01.827Z,15.09
2018-05-26T02:42:02.427Z,15.11
2018-05-26T02:42:03.026Z,15.11
2018-05-26T02:42:03.626Z,15.11
2018-05-26T02:42:04.231Z,15.15
2018-05-26T02:42:04.833Z,15.12
2018-05-26T02:42:05.485Z,15.11
2018-05-26T02:42:59.935Z,15.11
2018-05-26T02:43:00.500Z,15.12
2018-05-26T02:43:01.103Z,15.08
2018-05-26T02:43:01.703Z,15.11
2018-05-26T02:43:02.304Z,15.08
2018-05-26T02:43:02.904Z,15.08
2018-05-26T02:43:03.501Z,15.11
2018-05-26T02:43:04.101Z,15.13
2018-05-26T02:43:58.606Z,15.05
2018-05-26T02:43:59.176Z,15.06
2018-05-26T02:43:59.777Z,15.09
2018-05-26T02:44:00.378Z,15.09
2018-05-26T02:44:00.986Z,15.06
2018-05-26T02:44:01.578Z,15.02
2018-05-26T02:44:02.183Z,15.12
2018-05-26T02:44:02.774Z,15.05
2018-05-26T02:44:57.281Z,15.09
2018-05-26T02:44:57.852Z,15.09
2018-05-26T02:44:58.451Z,15.05
2018-05-26T02:44:59.058Z,15.06
2018-05-26T02:44:59.654Z,15.09
2018-05-26T02:45:00.252Z,15.17
2018-05-26T02:45:00.851Z,15.06
2018-05-26T02:45:01.470Z,15.09
2018-05-26T02:45:54.935Z,15.09
2018-05-26T02:45:55.505Z,15.08
2018-05-26T02:45:56.108Z,15.11
2018-05-26T02:45:56.709Z,15.06
2018-05-26T02:45:57.305Z,15.06
2018-05-26T02:45:57.916Z,15.08
2018-05-26T02:45:58.503Z,15.03
2018-05-26T02:45:59.103Z,15.05
2018-05-26T02:46:53.608Z,15.01
2018-05-26T02:46:54.180Z,14.98
2018-05-26T02:46:54.779Z,15.05
2018-05-26T02:46:55.386Z,15.11
2018-05-26T02:46:55.980Z,14.98
2018-05-26T02:46:56.579Z,14.94
2018-05-26T02:46:57.179Z,15.06
2018-05-26T02:46:57.780Z,15.01
2018-05-26T02:47:52.287Z,14.95
2018-05-26T02:47:52.858Z,14.94
2018-05-26T02:47:53.455Z,15.09
2018-05-26T02:47:54.058Z,14.98
2018-05-26T02:47:54.653Z,15.03
2018-05-26T02:47:55.255Z,14.98
2018-05-26T02:47:55.866Z,14.95
2018-05-26T02:47:56.455Z,14.95
2018-05-26T02:48:50.959Z,15.02
2018-05-26T02:48:51.536Z,15.05
2018-05-26T02:48:52.129Z,14.94
2018-05-26T02:48:52.730Z,14.99
2018-05-26T02:48:53.332Z,14.98
2018-05-26T02:48:53.931Z,14.99
2018-05-26T02:48:54.530Z,14.98
2018-05-26T02:48:55.130Z,14.95
2018-05-26T02:49:49.637Z,15.03
2018-05-26T02:49:50.205Z,15.05
2018-05-26T02:49:50.805Z,14.95
2018-05-26T02:49:51.407Z,14.99
2018-05-26T02:49:52.006Z,14.94
2018-05-26T02:49:52.605Z,14.94
2018-05-26T02:49:53.208Z,14.95
2018-05-26T02:49:53.806Z,15.05
2018-05-26T02:50:48.321Z,15.02
2018-05-26T02:50:48.883Z,15.01
2018-05-26T02:50:49.482Z,14.99
2018-05-26T02:50:50.089Z,14.99
2018-05-26T02:50:50.682Z,15.01
2018-05-26T02:50:51.281Z,15.01
2018-05-26T02:50:51.881Z,14.99
2018-05-26T02:50:52.482Z,14.99
2018-05-26T02:51:45.963Z,14.91
2018-05-26T02:51:46.538Z,14.94
2018-05-26T02:51:47.135Z,15.02
2018-05-26T02:51:47.735Z,14.98
2018-05-26T02:51:48.335Z,14.90
2018-05-26T02:51:48.934Z,14.90
2018-05-26T02:51:49.532Z,14.93
2018-05-26T02:51:50.134Z,14.99
2018-05-26T02:52:44.640Z,14.91
2018-05-26T02:52:45.209Z,15.01
2018-05-26T02:52:45.813Z,14.87
2018-05-26T02:52:46.409Z,14.95
2018-05-26T02:52:47.008Z,14.98
2018-05-26T02:52:48.210Z,14.98
2018-05-26T02:52:48.811Z,14.95
2018-05-26T02:53:43.320Z,14.90
2018-05-26T02:53:43.885Z,14.94
2018-05-26T02:53:44.485Z,14.99
2018-05-26T02:53:45.087Z,15.01
2018-05-26T02:53:45.691Z,14.95
2018-05-26T02:53:46.285Z,14.95
2018-05-26T02:53:46.884Z,14.91
2018-05-26T02:53:47.485Z,14.90
2018-05-26T02:54:41.986Z,14.94
2018-05-26T02:54:42.558Z,14.84
2018-05-26T02:54:43.160Z,14.94
2018-05-26T02:54:43.759Z,14.98
2018-05-26T02:54:44.358Z,14.98
2018-05-26T02:54:44.959Z,14.91
2018-05-26T02:54:45.559Z,14.95
2018-05-26T02:54:46.159Z,14.83
2018-05-26T02:55:40.661Z,14.91
2018-05-26T02:55:41.235Z,14.94
2018-05-26T02:55:41.833Z,14.95
2018-05-26T02:55:42.433Z,14.86
2018-05-26T02:55:43.035Z,14.90
2018-05-26T02:55:43.634Z,14.98
2018-05-26T02:55:44.237Z,14.91
2018-05-26T02:55:44.833Z,14.81
2018-05-26T02:56:38.313Z,14.87
2018-05-26T02:56:38.887Z,14.91
2018-05-26T02:56:39.492Z,14.87
2018-05-26T02:56:40.092Z,14.93
2018-05-26T02:56:40.687Z,14.91
2018-05-26T02:56:41.286Z,14.84
2018-05-26T02:56:41.887Z,14.86
2018-05-26T02:56:42.487Z,14.90
2018-05-26T02:57:36.990Z,14.84
2018-05-26T02:57:37.561Z,14.94
2018-05-26T02:57:38.162Z,14.90
2018-05-26T02:57:38.761Z,14.91
2018-05-26T02:57:39.361Z,14.90
2018-05-26T02:57:39.962Z,14.81
2018-05-26T02:57:40.562Z,14.93
2018-05-26T02:57:41.161Z,14.84
2018-05-26T02:58:34.641Z,14.88
2018-05-26T02:58:35.215Z,14.80
2018-05-26T02:58:35.814Z,14.93
2018-05-26T02:58:36.415Z,14.83
2018-05-26T02:58:37.014Z,14.83
2018-05-26T02:58:37.614Z,14.91
2018-05-26T02:58:38.214Z,14.86
2018-05-26T02:58:38.818Z,14.86
2018-05-26T02:59:33.316Z,14.84
2018-05-26T02:59:33.899Z,14.86
2018-05-26T02:59:34.513Z,14.81
2018-05-26T02:59:35.090Z,14.86
2018-05-26T02:59:35.688Z,14.87
2018-05-26T02:59:36.289Z,14.84
2018-05-26T02:59:36.889Z,14.86
2018-05-26T02:59:37.489Z,14.86
2018-05-26T03:00:31.995Z,14.84
2018-05-26T03:00:32.568Z,14.81
2018-05-26T03:00:33.173Z,14.81
2018-05-26T03:00:33.765Z,14.81
2018-05-26T03:00:34.372Z,14.84
2018-05-26T03:00:34.966Z,14.84
2018-05-26T03:00:35.564Z,14.83
2018-05-26T03:00:36.164Z,14.78
2018-05-26T03:01:30.670Z,14.86
2018-05-26T03:01:31.241Z,14.90
2018-05-26T03:01:31.840Z,14.86
2018-05-26T03:01:32.441Z,14.83
2018-05-26T03:01:33.040Z,14.86
2018-05-26T03:01:33.642Z,14.86
2018-05-26T03:01:34.241Z,14.84
2018-05-26T03:01:34.839Z,14.90
2018-05-26T03:02:29.349Z,14.83
2018-05-26T03:02:29.916Z,14.81
2018-05-26T03:02:30.519Z,14.87
2018-05-26T03:02:31.116Z,14.83
2018-05-26T03:02:31.717Z,14.81
2018-05-26T03:02:32.315Z,14.88
2018-05-26T03:02:32.914Z,14.81
2018-05-26T03:02:33.516Z,14.81
2018-05-26T03:03:28.020Z,14.84
2018-05-26T03:03:28.595Z,14.84
2018-05-26T03:03:29.193Z,14.84
2018-05-26T03:03:29.795Z,14.86
2018-05-26T03:03:30.395Z,14.83
2018-05-26T03:03:30.992Z,14.86
2018-05-26T03:03:31.593Z,14.87
2018-05-26T03:03:32.193Z,14.81
2018-05-26T03:04:26.694Z,14.91
2018-05-26T03:04:27.267Z,14.83
2018-05-26T03:04:27.866Z,14.86
2018-05-26T03:04:28.467Z,14.86